createdAt,value
2022-10-28T00:01:37.509Z,99.90
2022-10-28T00:04:04.402Z,99.90
2022-10-28T00:06:32.478Z,99.90
2022-10-28T00:08:59.606Z,99.90
2022-10-28T00:11:27.898Z,99.90
2022-10-28T00:13:55.465Z,99.90
2022-10-28T00:16:26.309Z,99.90
2022-10-28T00:18:54.222Z,99.90
2022-10-28T00:21:22.637Z,99.90
2022-10-28T00:23:49.350Z,99.90
2022-10-28T00:26:23.787Z,99.90
2022-10-28T00:28:51.765Z,99.90
2022-10-28T00:31:19.340Z,99.90
2022-10-28T00:33:46.355Z,99.90
2022-10-28T00:36:17.433Z,99.90
2022-10-28T00:38:45.020Z,99.90
2022-10-28T00:41:12.892Z,99.90
2022-10-28T00:43:45.023Z,99.90
2022-10-28T00:46:30.611Z,99.90
2022-10-28T00:49:00.175Z,99.90
2022-10-28T00:51:27.395Z,99.90
2022-10-28T00:53:56.100Z,99.90
2022-10-28T00:56:24.077Z,99.90
2022-10-28T00:58:51.704Z,99.90
2022-10-28T01:01:18.484Z,99.90
2022-10-28T01:03:45.260Z,99.90
2022-10-28T01:06:12.056Z,99.90
2022-10-28T01:08:38.890Z,99.90
2022-10-28T01:11:05.557Z,99.90
2022-10-28T01:13:38.428Z,99.90
2022-10-28T01:16:09.796Z,99.90
2022-10-28T01:18:49.125Z,99.90
2022-10-28T01:21:36.001Z,99.90
2022-10-28T01:24:05.465Z,99.90
2022-10-28T01:26:32.118Z,99.90
2022-10-28T01:29:17.653Z,99.90
2022-10-28T01:31:46.066Z,99.90
2022-10-28T01:34:18.631Z,99.90
2022-10-28T01:36:57.287Z,99.90
2022-10-28T01:39:33.162Z,99.90
2022-10-28T01:42:08.984Z,99.90
2022-10-28T01:44:35.682Z,99.90
2022-10-28T01:47:14.317Z,99.90
2022-10-28T01:49:45.184Z,99.90
2022-10-28T01:52:13.047Z,99.90
2022-10-28T01:54:43.064Z,99.90
2022-10-28T01:57:11.640Z,99.90
2022-10-28T01:59:38.871Z,99.90
2022-10-28T02:02:05.593Z,99.90
2022-10-28T02:04:32.317Z,99.90
2022-10-28T02:06:59.710Z,99.90
2022-10-28T02:09:32.455Z,99.90
2022-10-28T02:12:08.264Z,99.90
2022-10-28T02:14:37.988Z,99.90
2022-10-28T02:17:26.357Z,99.90
2022-10-28T02:20:05.370Z,99.90
2022-10-28T02:22:46.123Z,99.90
2022-10-28T02:25:22.005Z,99.90
2022-10-28T02:28:06.460Z,99.90
2022-10-28T02:30:37.263Z,99.90
2022-10-28T02:33:05.278Z,99.90
2022-10-28T02:35:35.927Z,99.90
2022-10-28T02:38:04.317Z,99.90
2022-10-28T02:40:32.824Z,99.90
2022-10-28T02:43:02.767Z,99.90
2022-10-28T02:45:32.028Z,99.90
2022-10-28T02:48:01.647Z,99.90
2022-10-28T02:50:34.384Z,99.90
2022-10-28T02:53:02.741Z,99.90
2022-10-28T02:55:32.528Z,99.90
2022-10-28T02:57:59.562Z,99.90
2022-10-28T03:00:26.320Z,99.90
2022-10-28T03:02:53.066Z,99.90
2022-10-28T03:05:20.816Z,99.90
2022-10-28T03:07:47.512Z,99.90
2022-10-28T03:10:14.277Z,99.90
2022-10-28T03:12:41.045Z,99.90
2022-10-28T03:15:08.011Z,99.90
2022-10-28T03:17:34.695Z,99.90
2022-10-28T03:20:01.539Z,99.90
2022-10-28T03:22:28.293Z,99.90
2022-10-28T03:24:55.050Z,99.90
2022-10-28T03:27:21.811Z,99.90
2022-10-28T03:29:48.531Z,99.90
2022-10-28T03:32:15.311Z,99.90
2022-10-28T03:34:42.155Z,99.90
2022-10-28T03:37:08.888Z,99.90
2022-10-28T03:39:35.606Z,99.90
2022-10-28T03:42:02.362Z,99.90
2022-10-28T03:44:29.095Z,99.90
2022-10-28T03:46:55.788Z,99.90
2022-10-28T03:49:22.823Z,99.90
2022-10-28T03:51:49.521Z,99.90
2022-10-28T03:54:16.261Z,99.90
2022-10-28T03:56:43.013Z,99.90
2022-10-28T03:59:10.186Z,99.90
2022-10-28T04:01:37.009Z,99.90
2022-10-28T04:04:06.753Z,99.90
2022-10-28T04:06:33.472Z,99.90
2022-10-28T04:09:00.179Z,99.90
2022-10-28T04:11:26.931Z,99.90
2022-10-28T04:13:53.605Z,99.90
2022-10-28T04:16:20.293Z,99.90
2022-10-28T04:18:47.163Z,99.90
2022-10-28T04:21:13.872Z,99.90
2022-10-28T04:23:40.605Z,99.90
2022-10-28T04:26:07.400Z,99.90
2022-10-28T04:28:34.151Z,99.90
2022-10-28T04:31:02.708Z,99.90
2022-10-28T04:33:29.589Z,99.90
2022-10-28T04:35:56.328Z,99.90
2022-10-28T04:40:54.790Z,99.90
2022-10-28T04:43:21.467Z,99.90
2022-10-28T04:45:48.156Z,99.90
2022-10-28T04:48:14.926Z,99.90
2022-10-28T04:50:41.631Z,99.90
2022-10-28T04:53:08.328Z,99.90
2022-10-28T04:55:35.115Z,99.90
2022-10-28T04:58:02.123Z,99.90
2022-10-28T05:00:29.437Z,99.90
2022-10-28T05:02:56.806Z,99.80
2022-10-28T05:05:23.709Z,99.90
2022-10-28T05:07:50.450Z,99.90
2022-10-28T05:10:18.349Z,99.80
2022-10-28T05:12:45.815Z,99.90
2022-10-28T05:15:13.438Z,99.90
2022-10-28T05:17:40.952Z,99.90
2022-10-28T05:20:08.076Z,99.70
2022-10-28T05:22:34.773Z,99.90
2022-10-28T05:25:01.615Z,99.50
2022-10-28T05:27:28.305Z,99.80
2022-10-28T05:29:54.995Z,99.80
2022-10-28T05:32:21.823Z,99.70
2022-10-28T05:34:48.526Z,99.80
2022-10-28T05:37:15.230Z,99.60
2022-10-28T05:39:42.046Z,99.60
2022-10-28T05:42:08.734Z,99.60
2022-10-28T05:44:35.439Z,99.70
2022-10-28T05:47:02.177Z,99.60
2022-10-28T05:49:28.884Z,99.60
2022-10-28T05:51:55.603Z,99.90
2022-10-28T05:54:22.362Z,99.60
2022-10-28T05:56:49.069Z,99.80
2022-10-28T05:59:15.794Z,99.70
2022-10-28T06:01:42.543Z,99.70
2022-10-28T06:04:09.377Z,99.90
2022-10-28T06:06:36.149Z,99.90
2022-10-28T06:09:03.568Z,99.80
2022-10-28T06:11:28.830Z,99.60
2022-10-28T06:13:55.530Z,99.90
2022-10-28T06:16:22.309Z,99.80
2022-10-28T06:18:49.043Z,99.90
2022-10-28T06:21:15.750Z,99.90
2022-10-28T06:23:42.517Z,99.80
2022-10-28T06:26:09.230Z,99.80
2022-10-28T06:28:35.922Z,99.60
2022-10-28T06:31:07.294Z,99.90
2022-10-28T06:33:34.359Z,99.90
2022-10-28T06:36:01.161Z,99.90
2022-10-28T06:38:28.095Z,99.70
2022-10-28T06:41:00.563Z,99.70
2022-10-28T06:43:27.284Z,99.80
2022-10-28T06:45:55.694Z,99.80
2022-10-28T06:48:24.155Z,99.90
2022-10-28T06:50:51.080Z,99.80
2022-10-28T06:53:17.829Z,99.90
2022-10-28T06:55:48.842Z,99.90
2022-10-28T06:58:15.886Z,99.90
2022-10-28T07:00:42.597Z,99.90
2022-10-28T07:03:10.556Z,99.80
2022-10-28T07:05:37.577Z,99.90
2022-10-28T07:08:04.716Z,99.90
2022-10-28T07:10:31.448Z,99.90
2022-10-28T07:12:58.407Z,99.90
2022-10-28T07:15:25.279Z,99.90
2022-10-28T07:17:53.345Z,99.90
2022-10-28T07:20:20.221Z,99.90
2022-10-28T07:22:46.928Z,99.90
2022-10-28T07:25:13.652Z,99.90
2022-10-28T07:27:40.403Z,99.90
2022-10-28T07:30:07.424Z,99.90
2022-10-28T07:32:34.130Z,99.90
2022-10-28T07:35:01.033Z,99.90
2022-10-28T07:37:27.775Z,99.90
2022-10-28T07:39:54.466Z,99.90
2022-10-28T07:42:21.217Z,99.90
2022-10-28T07:44:47.917Z,99.90
2022-10-28T07:47:14.708Z,99.90
2022-10-28T07:49:41.600Z,99.90
2022-10-28T07:52:09.109Z,99.90
2022-10-28T07:54:35.794Z,99.90
2022-10-28T07:57:02.628Z,99.90
2022-10-28T07:59:29.456Z,99.90
2022-10-28T08:01:56.202Z,99.90
2022-10-28T08:04:23.019Z,99.90
2022-10-28T08:06:49.817Z,99.90
2022-10-28T08:09:16.639Z,99.90
2022-10-28T08:11:43.430Z,99.90
2022-10-28T08:14:10.131Z,99.90
2022-10-28T08:16:36.900Z,99.90
2022-10-28T08:19:07.477Z,99.90
2022-10-28T08:21:34.658Z,99.90
2022-10-28T08:24:01.368Z,99.90
2022-10-28T08:26:28.110Z,99.90
2022-10-28T08:28:54.854Z,99.90
2022-10-28T08:31:21.537Z,99.90
2022-10-28T08:33:48.394Z,99.90
2022-10-28T08:36:16.254Z,99.90
2022-10-28T08:38:45.776Z,99.90
2022-10-28T08:41:18.960Z,99.90
2022-10-28T08:43:57.634Z,99.90
2022-10-28T08:46:39.984Z,99.90
2022-10-28T08:49:12.349Z,99.90
2022-10-28T08:51:39.030Z,99.90
2022-10-28T08:54:10.302Z,99.90
2022-10-28T08:56:46.050Z,99.90
2022-10-28T08:59:19.119Z,99.90
2022-10-28T09:01:51.826Z,99.90
2022-10-28T09:04:24.352Z,99.90
2022-10-28T09:06:51.138Z,99.90
2022-10-28T09:09:19.831Z,99.90
2022-10-28T09:11:57.296Z,99.90
2022-10-28T09:14:24.016Z,99.90
2022-10-28T09:16:56.826Z,99.60
2022-10-28T09:19:30.996Z,99.30
2022-10-28T09:22:09.033Z,99.10
2022-10-28T09:24:43.696Z,98.00
2022-10-28T09:27:29.913Z,98.20
2022-10-28T09:29:56.584Z,97.90
2022-10-28T09:32:35.419Z,98.10
2022-10-28T09:35:16.288Z,98.20
2022-10-28T09:37:49.806Z,98.10
2022-10-28T09:40:21.820Z,98.20
2022-10-28T09:43:08.821Z,98.60
2022-10-28T09:45:37.665Z,98.40
2022-10-28T09:48:22.837Z,98.50
2022-10-28T09:50:50.885Z,98.70
2022-10-28T09:53:35.795Z,98.50
2022-10-28T09:56:03.797Z,99.10
2022-10-28T09:58:31.949Z,99.30
2022-10-28T10:00:58.749Z,99.30
2022-10-28T10:03:25.547Z,99.50
2022-10-28T10:05:54.295Z,99.60
2022-10-28T10:08:22.660Z,99.80
2022-10-28T10:10:50.714Z,99.60
2022-10-28T10:13:20.062Z,99.40
2022-10-28T10:15:48.994Z,99.50
2022-10-28T10:18:17.434Z,99.50
2022-10-28T10:20:49.239Z,99.50
2022-10-28T10:23:42.140Z,99.70
2022-10-28T10:26:12.231Z,99.70
2022-10-28T10:28:43.637Z,99.50
2022-10-28T10:31:18.127Z,99.70
2022-10-28T10:33:48.537Z,99.80
2022-10-28T10:36:17.532Z,99.80
2022-10-28T10:38:56.770Z,99.70
2022-10-28T10:41:34.070Z,99.60
2022-10-28T10:44:01.049Z,99.80
2022-10-28T10:46:28.151Z,99.80
2022-10-28T10:49:14.175Z,99.50
2022-10-28T10:51:57.673Z,99.60
2022-10-28T10:54:25.431Z,99.50
2022-10-28T10:56:52.328Z,99.50
2022-10-28T10:59:24.234Z,99.70
2022-10-28T11:01:51.287Z,99.50
2022-10-28T11:04:22.270Z,99.50
2022-10-28T11:06:50.141Z,99.70
2022-10-28T11:09:19.592Z,99.30
2022-10-28T11:11:46.334Z,99.40
2022-10-28T11:14:13.433Z,99.10
2022-10-28T11:16:47.990Z,99.40
2022-10-28T11:19:21.909Z,99.50
2022-10-28T11:22:01.107Z,99.20
2022-10-28T11:24:42.996Z,99.20
2022-10-28T11:27:12.723Z,99.70
2022-10-28T11:29:39.710Z,99.80
2022-10-28T11:32:14.303Z,99.20
2022-10-28T11:34:50.092Z,99.30
2022-10-28T11:37:16.823Z,99.60
2022-10-28T11:39:46.510Z,99.50
2022-10-28T11:42:13.197Z,99.40
2022-10-28T11:44:51.441Z,99.30
2022-10-28T11:47:36.784Z,99.60
2022-10-28T11:50:03.568Z,99.60
2022-10-28T11:52:48.654Z,99.50
2022-10-28T11:55:18.491Z,99.60
2022-10-28T11:57:51.462Z,99.50
2022-10-28T12:00:56.970Z,99.30
2022-10-28T12:03:32.443Z,99.00
2022-10-28T12:06:22.232Z,99.20
2022-10-28T12:09:03.698Z,99.60
2022-10-28T12:11:36.278Z,98.80
2022-10-28T12:14:05.659Z,99.50
2022-10-28T12:16:38.581Z,99.00
2022-10-28T12:19:15.344Z,99.20
2022-10-28T12:21:45.134Z,99.30
2022-10-28T12:24:14.416Z,99.00
2022-10-28T12:26:43.331Z,98.90
2022-10-28T12:29:16.142Z,99.30
2022-10-28T12:31:47.782Z,99.20
2022-10-28T12:34:16.934Z,99.10
2022-10-28T12:36:52.360Z,98.90
2022-10-28T12:39:19.158Z,99.10
2022-10-28T12:41:55.191Z,99.00
2022-10-28T12:44:23.655Z,99.00
2022-10-28T12:46:55.377Z,98.60
2022-10-28T12:49:22.190Z,98.70
2022-10-28T12:51:49.195Z,98.80
2022-10-28T12:54:26.310Z,98.60
2022-10-28T12:56:57.572Z,98.60
2022-10-28T12:59:37.157Z,98.80
2022-10-28T13:02:04.463Z,99.00
2022-10-28T13:04:31.256Z,98.70
2022-10-28T13:06:57.927Z,98.50
2022-10-28T13:09:39.252Z,98.40
2022-10-28T13:12:09.112Z,98.90
2022-10-28T13:14:35.839Z,98.30
2022-10-28T13:17:05.350Z,98.70
2022-10-28T13:19:32.031Z,98.30
2022-10-28T13:22:01.872Z,98.40
2022-10-28T13:24:47.856Z,98.90
2022-10-28T13:27:15.149Z,98.50
2022-10-28T13:29:43.284Z,98.80
2022-10-28T13:32:31.489Z,98.60
2022-10-28T13:35:00.783Z,98.50
2022-10-28T13:37:32.424Z,98.50
2022-10-28T13:39:59.181Z,99.00
2022-10-28T13:42:25.848Z,98.50
2022-10-28T13:44:56.682Z,98.60
2022-10-28T13:47:25.277Z,98.60
2022-10-28T13:50:18.089Z,98.50
2022-10-28T13:52:45.755Z,98.80
2022-10-28T13:55:43.189Z,98.70
2022-10-28T13:58:20.501Z,98.50
2022-10-28T14:00:50.455Z,98.70
2022-10-28T14:03:21.769Z,98.90
2022-10-28T14:05:49.155Z,98.70
2022-10-28T14:08:31.060Z,98.60
2022-10-28T14:11:00.543Z,98.70
2022-10-28T14:13:27.672Z,98.60
2022-10-28T14:16:14.481Z,98.60
2022-10-28T14:18:44.160Z,98.60
2022-10-28T14:21:11.972Z,99.20
2022-10-28T14:23:44.852Z,98.80
2022-10-28T14:26:11.618Z,98.80
2022-10-28T14:28:38.306Z,99.00
2022-10-28T14:31:08.133Z,98.80
2022-10-28T14:33:46.633Z,98.80
2022-10-28T14:36:19.391Z,98.60
2022-10-28T14:39:04.600Z,99.00
2022-10-28T14:41:34.212Z,98.90
2022-10-28T14:44:22.861Z,99.00
2022-10-28T14:46:58.818Z,98.90
2022-10-28T14:49:26.797Z,99.00
2022-10-28T14:51:54.374Z,99.00
2022-10-28T14:54:35.332Z,98.70
2022-10-28T14:57:05.655Z,99.20
2022-10-28T14:59:43.174Z,98.80
2022-10-28T15:02:12.024Z,98.80
2022-10-28T15:04:40.531Z,98.60
2022-10-28T15:07:14.454Z,98.60
2022-10-28T15:09:43.473Z,98.70
2022-10-28T15:12:14.667Z,98.80
2022-10-28T15:14:42.490Z,98.70
2022-10-28T15:17:17.314Z,98.90
2022-10-28T15:19:45.896Z,98.60
2022-10-28T15:22:17.260Z,98.70
2022-10-28T15:24:53.151Z,98.50
2022-10-28T15:27:20.212Z,98.80
2022-10-28T15:29:48.112Z,98.60
2022-10-28T15:32:20.867Z,98.60
2022-10-28T15:34:48.652Z,98.10
2022-10-28T15:37:23.629Z,98.90
2022-10-28T15:39:58.616Z,98.80
2022-10-28T15:42:35.303Z,98.60
2022-10-28T15:45:03.076Z,98.50
2022-10-28T15:47:37.782Z,98.70
2022-10-28T15:50:06.771Z,98.40
2022-10-28T15:52:35.342Z,98.50
2022-10-28T15:55:04.642Z,98.60
2022-10-28T16:01:29.665Z,98.70
2022-10-28T16:03:57.050Z,98.90
2022-10-28T16:06:24.136Z,98.40
2022-10-28T16:09:05.159Z,98.40
2022-10-28T16:11:33.731Z,98.40
2022-10-28T16:14:04.111Z,98.50
2022-10-28T16:16:33.312Z,98.70
2022-10-28T16:19:10.841Z,98.60
2022-10-28T16:21:37.957Z,98.40
2022-10-28T16:24:04.852Z,98.50
2022-10-28T16:26:33.094Z,98.90
2022-10-28T16:28:59.995Z,98.70
2022-10-28T16:31:28.549Z,98.90
2022-10-28T16:33:55.265Z,99.00
2022-10-28T16:36:22.060Z,99.20
2022-10-28T16:38:48.914Z,99.20
2022-10-28T16:41:18.687Z,99.20
2022-10-28T16:43:45.953Z,99.60
2022-10-28T16:46:13.412Z,99.40
2022-10-28T16:48:40.490Z,99.40
2022-10-28T16:51:15.330Z,99.40
2022-10-28T16:53:46.980Z,99.50
2022-10-28T16:56:17.247Z,99.50
2022-10-28T16:58:44.189Z,99.40
2022-10-28T17:01:11.153Z,99.40
2022-10-28T17:03:38.041Z,99.70
2022-10-28T17:06:04.855Z,99.70
2022-10-28T17:08:57.107Z,99.50
2022-10-28T17:11:18.468Z,99.60
2022-10-28T17:13:45.331Z,99.60
2022-10-28T17:16:12.995Z,99.70
2022-10-28T17:18:40.367Z,99.60
2022-10-28T17:21:07.037Z,99.60
2022-10-28T17:23:33.737Z,99.70
2022-10-28T17:26:01.650Z,99.90
2022-10-28T17:28:28.507Z,99.90
2022-10-28T17:31:01.300Z,99.70
2022-10-28T17:33:28.010Z,99.90
2022-10-28T17:35:54.696Z,99.90
2022-10-28T17:38:21.457Z,99.90
2022-10-28T17:40:53.444Z,99.90
2022-10-28T17:43:20.159Z,99.90
2022-10-28T17:45:46.905Z,99.80
2022-10-28T17:48:13.637Z,99.90
2022-10-28T17:50:40.336Z,99.90
2022-10-28T17:53:07.120Z,99.90
2022-10-28T17:55:33.864Z,99.90
2022-10-28T17:58:00.604Z,99.90
2022-10-28T18:00:27.365Z,99.90
2022-10-28T18:02:57.283Z,99.90
2022-10-28T18:05:24.033Z,99.90
2022-10-28T18:07:53.947Z,99.90
2022-10-28T18:10:20.887Z,99.90
2022-10-28T18:12:49.894Z,99.90
2022-10-28T18:15:16.741Z,99.90
2022-10-28T18:17:43.443Z,99.90
2022-10-28T18:20:10.283Z,99.90
2022-10-28T18:22:37.019Z,99.90
2022-10-28T18:25:03.816Z,99.90
2022-10-28T18:27:30.520Z,99.90
2022-10-28T18:29:57.450Z,99.90
2022-10-28T18:32:24.240Z,99.90
2022-10-28T18:34:51.044Z,99.90
2022-10-28T18:37:17.837Z,99.90
2022-10-28T18:39:44.548Z,99.90
2022-10-28T18:42:12.442Z,99.90
2022-10-28T18:44:41.459Z,99.90
2022-10-28T18:47:08.191Z,99.90
2022-10-28T18:49:34.875Z,99.90
2022-10-28T18:52:02.447Z,99.90
2022-10-28T18:54:29.216Z,99.90
2022-10-28T18:56:57.674Z,99.90
2022-10-28T18:59:24.748Z,99.90
2022-10-28T19:01:51.523Z,99.90
2022-10-28T19:04:18.357Z,99.90
2022-10-28T19:06:46.873Z,99.90
2022-10-28T19:09:13.629Z,99.90
2022-10-28T19:11:40.362Z,99.90
2022-10-28T19:14:07.194Z,99.90
2022-10-28T19:16:34.469Z,99.90
2022-10-28T19:19:02.339Z,99.90
2022-10-28T19:21:29.397Z,99.90
2022-10-28T19:23:56.379Z,99.90
2022-10-28T19:26:23.553Z,99.90
2022-10-28T19:28:50.851Z,99.90
2022-10-28T19:31:18.884Z,99.90
2022-10-28T19:33:45.912Z,99.90
2022-10-28T19:36:14.601Z,99.90
2022-10-28T19:38:41.299Z,99.90
2022-10-28T19:41:09.219Z,99.90
2022-10-28T19:43:36.379Z,99.90
2022-10-28T19:46:10.943Z,99.90
2022-10-28T19:48:38.430Z,99.90
2022-10-28T19:51:05.266Z,99.90
2022-10-28T19:53:32.137Z,99.90
2022-10-28T19:59:49.478Z,99.90
2022-10-28T20:02:16.299Z,99.90
2022-10-28T20:04:43.089Z,99.90
2022-10-28T20:07:09.819Z,99.90
2022-10-28T20:09:36.513Z,99.90
2022-10-28T20:12:03.225Z,99.90
2022-10-28T20:14:30.120Z,99.90
2022-10-28T20:16:56.908Z,99.90
2022-10-28T20:19:23.607Z,99.90
2022-10-28T20:21:51.012Z,99.90
2022-10-28T20:24:17.722Z,99.90
2022-10-28T20:26:44.463Z,99.90
2022-10-28T20:29:11.247Z,99.90
2022-10-28T20:31:39.067Z,99.90
2022-10-28T20:34:05.920Z,99.90
2022-10-28T20:36:36.930Z,99.90
2022-10-28T20:39:05.712Z,99.90
2022-10-28T20:41:33.541Z,99.90
2022-10-28T20:44:02.099Z,99.90
2022-10-28T20:46:29.097Z,99.90
2022-10-28T20:48:56.609Z,99.90
2022-10-28T20:51:24.739Z,99.90
2022-10-28T20:53:51.495Z,99.90
2022-10-28T20:56:20.007Z,99.90
2022-10-28T20:58:47.267Z,99.90
2022-10-28T21:01:18.682Z,99.90
2022-10-28T21:03:45.703Z,99.90
2022-10-28T21:08:40.614Z,99.90
2022-10-28T21:11:08.116Z,99.90
2022-10-28T21:13:35.288Z,99.90
2022-10-28T21:16:05.564Z,99.90
2022-10-28T21:18:32.433Z,99.90
2022-10-28T21:21:00.462Z,99.90
2022-10-28T21:23:27.693Z,99.90
2022-10-28T21:25:55.176Z,99.90
2022-10-28T21:28:22.058Z,99.90
2022-10-28T21:30:48.743Z,99.90
2022-10-28T21:33:17.690Z,99.90
2022-10-28T21:35:44.672Z,99.90
2022-10-28T21:38:12.959Z,99.90
2022-10-28T21:40:39.706Z,99.90
2022-10-28T21:43:09.121Z,99.90
2022-10-28T21:45:35.839Z,99.90
2022-10-28T21:48:02.530Z,99.90
2022-10-28T21:50:29.652Z,99.90
2022-10-28T21:55:42.067Z,99.90
2022-10-28T21:58:13.281Z,99.90
2022-10-28T22:00:40.002Z,99.90
2022-10-28T22:03:06.706Z,99.90
2022-10-28T22:05:33.517Z,99.90
2022-10-28T22:08:03.107Z,99.90
2022-10-28T22:10:31.973Z,99.90
2022-10-28T22:12:58.698Z,99.90
2022-10-28T22:15:25.397Z,99.90
2022-10-28T22:17:52.209Z,99.90
2022-10-28T22:20:19.168Z,99.90
2022-10-28T22:22:45.939Z,99.90
2022-10-28T22:25:12.662Z,99.90
2022-10-28T22:27:39.463Z,99.90
2022-10-28T22:30:06.407Z,99.90
2022-10-28T22:32:33.385Z,99.90
2022-10-28T22:35:00.201Z,99.90
2022-10-28T22:37:26.921Z,99.90
2022-10-28T22:39:53.614Z,99.90
2022-10-28T22:42:20.562Z,99.90
2022-10-28T22:44:47.286Z,99.90
2022-10-28T22:47:13.982Z,99.90
2022-10-28T22:49:40.741Z,99.90
2022-10-28T22:52:07.446Z,99.90
2022-10-28T22:54:34.125Z,99.90
2022-10-28T22:57:00.901Z,99.90
2022-10-28T22:59:27.569Z,99.90
2022-10-28T23:01:54.375Z,99.90
2022-10-28T23:04:21.150Z,99.90
2022-10-28T23:06:47.910Z,99.90
2022-10-28T23:09:14.605Z,99.90
2022-10-28T23:11:41.460Z,99.90
2022-10-28T23:14:08.249Z,99.90
2022-10-28T23:16:34.930Z,99.90
2022-10-28T23:19:01.661Z,99.90
2022-10-28T23:21:28.428Z,99.90
2022-10-28T23:23:56.765Z,99.90
2022-10-28T23:26:24.096Z,99.90
2022-10-28T23:28:54.234Z,99.90
2022-10-28T23:31:21.374Z,99.90
2022-10-28T23:33:48.413Z,99.90
2022-10-28T23:36:16.055Z,99.90
2022-10-28T23:38:42.768Z,99.90
2022-10-28T23:41:10.842Z,99.80
2022-10-28T23:43:37.884Z,99.90
2022-10-28T23:46:04.846Z,99.90
2022-10-28T23:48:31.713Z,99.90
2022-10-28T23:50:58.581Z,99.90
2022-10-28T23:53:25.372Z,99.90
2022-10-28T23:55:52.275Z,99.90
2022-10-28T23:58:19.967Z,99.90
